Fayetteville, New York
Current Conditions -  °F | °C
As of 6:54 PM on Saturday 22 Nov 2014 (Local Time) from KSYR Reporting Station
Overcast Overcast  
Wind Chill: 38°   Ceiling: 2400
Heat Index: 44°   Visibility: 10mi
Dew Point: 38°   Wind: 12mph
Humidity: 79%   Direction: 200°SSW
Pressure: 30.02"   Gusts: NA
Location:  43.03°N, 76°W
Report Text: KSYR 222354Z 20010KT 10SM OVC024 07/03 A3002 RMK AO2 RAE29 SLP165 P0001 60008 T00670033 10067 20022 50000 $
Loading
Personal Weather Stations






























Interactive Weather Map New forecast layout! Learn more

10-Day Weather Forecast

Advertisements
Track Severe Weather on mobile